sensor_id;sensor_type;location;lat;lon;timestamp;P1;durP1;ratioP1;P2;durP2;ratioP2
3939;SDS011;1984;48.312;9.244;2023-10-08T00:02:03;21.47;;;11.40;;
3939;SDS011;1984;48.312;9.244;2023-10-08T00:04:30;20.37;;;9.30;;
3939;SDS011;1984;48.312;9.244;2023-10-08T00:07:02;21.80;;;9.53;;
3939;SDS011;1984;48.312;9.244;2023-10-08T00:09:34;17.77;;;8.60;;
3939;SDS011;1984;48.312;9.244;2023-10-08T00:12:03;19.10;;;7.50;;
3939;SDS011;1984;48.312;9.244;2023-10-08T00:14:29;19.00;;;7.10;;
3939;SDS011;1984;48.312;9.244;2023-10-08T00:16:55;17.50;;;8.27;;
3939;SDS011;1984;48.312;9.244;2023-10-08T00:19:20;19.77;;;8.90;;
3939;SDS011;1984;48.312;9.244;2023-10-08T00:21:46;19.17;;;7.63;;
3939;SDS011;1984;48.312;9.244;2023-10-08T00:24:13;18.43;;;8.53;;
3939;SDS011;1984;48.312;9.244;2023-10-08T00:26:39;18.13;;;7.70;;
3939;SDS011;1984;48.312;9.244;2023-10-08T00:29:08;15.93;;;7.60;;
3939;SDS011;1984;48.312;9.244;2023-10-08T00:31:46;16.90;;;7.17;;
3939;SDS011;1984;48.312;9.244;2023-10-08T00:34:15;15.80;;;7.53;;
3939;SDS011;1984;48.312;9.244;2023-10-08T00:36:42;13.03;;;7.10;;
3939;SDS011;1984;48.312;9.244;2023-10-08T00:39:09;15.20;;;7.70;;
3939;SDS011;1984;48.312;9.244;2023-10-08T00:41:45;18.63;;;7.47;;
3939;SDS011;1984;48.312;9.244;2023-10-08T00:44:12;18.67;;;7.80;;
3939;SDS011;1984;48.312;9.244;2023-10-08T00:46:48;15.97;;;6.87;;
3939;SDS011;1984;48.312;9.244;2023-10-08T00:49:17;16.50;;;6.83;;
3939;SDS011;1984;48.312;9.244;2023-10-08T00:51:47;17.20;;;7.00;;
3939;SDS011;1984;48.312;9.244;2023-10-08T00:54:48;15.40;;;6.23;;
3939;SDS011;1984;48.312;9.244;2023-10-08T00:57:29;16.23;;;5.90;;
3939;SDS011;1984;48.312;9.244;2023-10-08T00:59:59;16.67;;;6.90;;
3939;SDS011;1984;48.312;9.244;2023-10-08T01:02:25;10.70;;;6.20;;
3939;SDS011;1984;48.312;9.244;2023-10-08T01:04:54;22.33;;;6.00;;
3939;SDS011;1984;48.312;9.244;2023-10-08T01:07:21;13.00;;;6.37;;
3939;SDS011;1984;48.312;9.244;2023-10-08T01:09:48;15.20;;;5.77;;
3939;SDS011;1984;48.312;9.244;2023-10-08T01:12:19;13.80;;;5.50;;
3939;SDS011;1984;48.312;9.244;2023-10-08T01:14:49;11.97;;;5.70;;
3939;SDS011;1984;48.312;9.244;2023-10-08T01:17:18;13.77;;;6.13;;
3939;SDS011;1984;48.312;9.244;2023-10-08T01:19:51;14.50;;;6.50;;
3939;SDS011;1984;48.312;9.244;2023-10-08T01:22:21;15.00;;;6.37;;
3939;SDS011;1984;48.312;9.244;2023-10-08T01:24:50;16.53;;;5.50;;
3939;SDS011;1984;48.312;9.244;2023-10-08T01:27:16;8.07;;;4.93;;
3939;SDS011;1984;48.312;9.244;2023-10-08T01:29:48;11.00;;;5.27;;
3939;SDS011;1984;48.312;9.244;2023-10-08T01:32:17;9.10;;;4.90;;
3939;SDS011;1984;48.312;9.244;2023-10-08T01:34:48;20.23;;;5.77;;
3939;SDS011;1984;48.312;9.244;2023-10-08T01:37:14;16.30;;;6.00;;
3939;SDS011;1984;48.312;9.244;2023-10-08T01:39:46;11.80;;;5.13;;
3939;SDS011;1984;48.312;9.244;2023-10-08T01:42:15;8.77;;;5.17;;
3939;SDS011;1984;48.312;9.244;2023-10-08T01:44:45;8.87;;;4.80;;
3939;SDS011;1984;48.312;9.244;2023-10-08T01:47:15;14.70;;;5.30;;
3939;SDS011;1984;48.312;9.244;2023-10-08T01:49:42;9.47;;;4.77;;
3939;SDS011;1984;48.312;9.244;2023-10-08T01:52:14;13.57;;;4.97;;
3939;SDS011;1984;48.312;9.244;2023-10-08T01:54:46;17.97;;;5.70;;
3939;SDS011;1984;48.312;9.244;2023-10-08T01:57:13;12.87;;;4.87;;
3939;SDS011;1984;48.312;9.244;2023-10-08T01:59:39;11.37;;;5.30;;
3939;SDS011;1984;48.312;9.244;2023-10-08T02:02:05;14.70;;;4.50;;
3939;SDS011;1984;48.312;9.244;2023-10-08T02:04:32;14.00;;;5.40;;
3939;SDS011;1984;48.312;9.244;2023-10-08T02:07:00;11.47;;;5.20;;
3939;SDS011;1984;48.312;9.244;2023-10-08T02:09:26;12.23;;;4.90;;
3939;SDS011;1984;48.312;9.244;2023-10-08T02:11:52;10.60;;;5.87;;
3939;SDS011;1984;48.312;9.244;2023-10-08T02:14:18;9.97;;;4.60;;
3939;SDS011;1984;48.312;9.244;2023-10-08T02:16:45;14.70;;;4.53;;
3939;SDS011;1984;48.312;9.244;2023-10-08T02:19:11;9.00;;;4.47;;
3939;SDS011;1984;48.312;9.244;2023-10-08T02:21:38;9.90;;;4.33;;
3939;SDS011;1984;48.312;9.244;2023-10-08T02:24:05;11.97;;;3.73;;
3939;SDS011;1984;48.312;9.244;2023-10-08T02:26:32;9.47;;;4.03;;
3939;SDS011;1984;48.312;9.244;2023-10-08T02:28:59;7.07;;;4.00;;
3939;SDS011;1984;48.312;9.244;2023-10-08T02:31:33;15.10;;;4.23;;
3939;SDS011;1984;48.312;9.244;2023-10-08T02:33:59;12.00;;;4.10;;
3939;SDS011;1984;48.312;9.244;2023-10-08T02:36:24;10.10;;;4.63;;
3939;SDS011;1984;48.312;9.244;2023-10-08T02:38:50;8.90;;;4.60;;
3939;SDS011;1984;48.312;9.244;2023-10-08T02:41:16;10.57;;;4.70;;
3939;SDS011;1984;48.312;9.244;2023-10-08T02:43:42;13.60;;;5.40;;
3939;SDS011;1984;48.312;9.244;2023-10-08T02:46:10;8.83;;;4.77;;
3939;SDS011;1984;48.312;9.244;2023-10-08T02:48:40;13.67;;;4.60;;
3939;SDS011;1984;48.312;9.244;2023-10-08T02:51:05;9.53;;;4.50;;
3939;SDS011;1984;48.312;9.244;2023-10-08T02:53:40;10.50;;;4.40;;
3939;SDS011;1984;48.312;9.244;2023-10-08T02:56:11;10.00;;;4.60;;
3939;SDS011;1984;48.312;9.244;2023-10-08T02:58:40;15.70;;;4.10;;
3939;SDS011;1984;48.312;9.244;2023-10-08T03:01:05;11.73;;;4.90;;
3939;SDS011;1984;48.312;9.244;2023-10-08T03:03:32;9.80;;;4.30;;
3939;SDS011;1984;48.312;9.244;2023-10-08T03:05:57;8.73;;;4.07;;
3939;SDS011;1984;48.312;9.244;2023-10-08T03:08:23;9.00;;;4.30;;
3939;SDS011;1984;48.312;9.244;2023-10-08T03:10:50;7.90;;;4.40;;
3939;SDS011;1984;48.312;9.244;2023-10-08T03:13:20;9.13;;;5.13;;
3939;SDS011;1984;48.312;9.244;2023-10-08T03:15:47;12.27;;;4.27;;
3939;SDS011;1984;48.312;9.244;2023-10-08T03:18:23;11.40;;;4.90;;
3939;SDS011;1984;48.312;9.244;2023-10-08T03:20:49;12.30;;;4.57;;
3939;SDS011;1984;48.312;9.244;2023-10-08T03:23:15;14.40;;;4.53;;
3939;SDS011;1984;48.312;9.244;2023-10-08T03:25:57;16.07;;;5.53;;
3939;SDS011;1984;48.312;9.244;2023-10-08T03:28:53;14.53;;;4.97;;
3939;SDS011;1984;48.312;9.244;2023-10-08T03:31:23;8.60;;;4.20;;
3939;SDS011;1984;48.312;9.244;2023-10-08T03:34:10;13.30;;;5.00;;
3939;SDS011;1984;48.312;9.244;2023-10-08T03:36:40;11.30;;;5.00;;
3939;SDS011;1984;48.312;9.244;2023-10-08T03:39:14;10.70;;;4.93;;
3939;SDS011;1984;48.312;9.244;2023-10-08T03:41:43;10.23;;;4.47;;
3939;SDS011;1984;48.312;9.244;2023-10-08T03:44:28;17.90;;;6.10;;
3939;SDS011;1984;48.312;9.244;2023-10-08T03:46:54;14.73;;;5.93;;
3939;SDS011;1984;48.312;9.244;2023-10-08T03:49:23;11.33;;;5.30;;
3939;SDS011;1984;48.312;9.244;2023-10-08T03:51:48;11.37;;;4.70;;
3939;SDS011;1984;48.312;9.244;2023-10-08T03:54:20;9.70;;;4.83;;
3939;SDS011;1984;48.312;9.244;2023-10-08T03:57:01;10.43;;;5.07;;
3939;SDS011;1984;48.312;9.244;2023-10-08T03:59:29;9.30;;;4.43;;
3939;SDS011;1984;48.312;9.244;2023-10-08T04:01:56;21.63;;;4.73;;
3939;SDS011;1984;48.312;9.244;2023-10-08T04:04:25;17.40;;;5.60;;
3939;SDS011;1984;48.312;9.244;2023-10-08T04:07:13;14.30;;;6.03;;
3939;SDS011;1984;48.312;9.244;2023-10-08T04:09:58;9.37;;;5.00;;
3939;SDS011;1984;48.312;9.244;2023-10-08T04:12:33;12.43;;;5.40;;
3939;SDS011;1984;48.312;9.244;2023-10-08T04:15:02;12.87;;;6.10;;
3939;SDS011;1984;48.312;9.244;2023-10-08T04:17:37;11.37;;;5.47;;
3939;SDS011;1984;48.312;9.244;2023-10-08T04:20:10;11.17;;;5.33;;
3939;SDS011;1984;48.312;9.244;2023-10-08T04:22:55;13.40;;;6.70;;
3939;SDS011;1984;48.312;9.244;2023-10-08T04:25:21;11.83;;;5.80;;
3939;SDS011;1984;48.312;9.244;2023-10-08T04:27:46;9.93;;;5.10;;
3939;SDS011;1984;48.312;9.244;2023-10-08T04:30:15;9.27;;;4.50;;
3939;SDS011;1984;48.312;9.244;2023-10-08T04:32:41;12.70;;;5.47;;
3939;SDS011;1984;48.312;9.244;2023-10-08T04:35:07;10.47;;;5.53;;
3939;SDS011;1984;48.312;9.244;2023-10-08T04:37:39;15.40;;;4.87;;
3939;SDS011;1984;48.312;9.244;2023-10-08T04:40:06;9.63;;;4.83;;
3939;SDS011;1984;48.312;9.244;2023-10-08T04:42:40;10.23;;;4.70;;
3939;SDS011;1984;48.312;9.244;2023-10-08T04:45:09;13.90;;;5.33;;
3939;SDS011;1984;48.312;9.244;2023-10-08T04:47:38;11.47;;;4.90;;
3939;SDS011;1984;48.312;9.244;2023-10-08T04:50:10;13.60;;;5.00;;
3939;SDS011;1984;48.312;9.244;2023-10-08T04:52:40;9.90;;;5.50;;
3939;SDS011;1984;48.312;9.244;2023-10-08T04:55:12;11.83;;;4.90;;
3939;SDS011;1984;48.312;9.244;2023-10-08T04:57:44;10.03;;;4.63;;
3939;SDS011;1984;48.312;9.244;2023-10-08T05:00:11;8.30;;;5.43;;
3939;SDS011;1984;48.312;9.244;2023-10-08T05:02:40;13.77;;;6.47;;
3939;SDS011;1984;48.312;9.244;2023-10-08T05:05:15;10.80;;;5.80;;
3939;SDS011;1984;48.312;9.244;2023-10-08T05:07:40;12.87;;;5.47;;
3939;SDS011;1984;48.312;9.244;2023-10-08T05:10:12;8.27;;;5.50;;
3939;SDS011;1984;48.312;9.244;2023-10-08T05:12:51;9.70;;;5.47;;
3939;SDS011;1984;48.312;9.244;2023-10-08T05:15:30;12.53;;;5.90;;
3939;SDS011;1984;48.312;9.244;2023-10-08T05:18:02;12.17;;;5.07;;
3939;SDS011;1984;48.312;9.244;2023-10-08T05:20:37;20.00;;;5.80;;
3939;SDS011;1984;48.312;9.244;2023-10-08T05:23:16;11.43;;;6.53;;
3939;SDS011;1984;48.312;9.244;2023-10-08T05:25:55;11.10;;;5.93;;
3939;SDS011;1984;48.312;9.244;2023-10-08T05:28:40;9.00;;;4.97;;
3939;SDS011;1984;48.312;9.244;2023-10-08T05:31:25;14.37;;;4.73;;
3939;SDS011;1984;48.312;9.244;2023-10-08T05:34:21;13.30;;;5.07;;
3939;SDS011;1984;48.312;9.244;2023-10-08T05:36:58;9.93;;;4.90;;
3939;SDS011;1984;48.312;9.244;2023-10-08T05:39:24;9.10;;;4.47;;
3939;SDS011;1984;48.312;9.244;2023-10-08T05:41:50;14.50;;;5.13;;
3939;SDS011;1984;48.312;9.244;2023-10-08T05:44:41;15.33;;;6.13;;
3939;SDS011;1984;48.312;9.244;2023-10-08T05:47:26;12.70;;;6.27;;
3939;SDS011;1984;48.312;9.244;2023-10-08T05:49:58;11.37;;;5.50;;
3939;SDS011;1984;48.312;9.244;2023-10-08T05:52:59;12.73;;;5.00;;
3939;SDS011;1984;48.312;9.244;2023-10-08T05:55:25;10.47;;;5.70;;
3939;SDS011;1984;48.312;9.244;2023-10-08T05:57:53;10.63;;;5.70;;
3939;SDS011;1984;48.312;9.244;2023-10-08T06:00:49;14.73;;;7.00;;
3939;SDS011;1984;48.312;9.244;2023-10-08T06:03:19;10.40;;;5.73;;
3939;SDS011;1984;48.312;9.244;2023-10-08T06:06:17;10.80;;;5.73;;
3939;SDS011;1984;48.312;9.244;2023-10-08T06:08:42;15.23;;;6.00;;
3939;SDS011;1984;48.312;9.244;2023-10-08T06:11:29;13.67;;;5.80;;
3939;SDS011;1984;48.312;9.244;2023-10-08T06:14:21;9.57;;;5.53;;
3939;SDS011;1984;48.312;9.244;2023-10-08T06:17:06;14.40;;;5.87;;
3939;SDS011;1984;48.312;9.244;2023-10-08T06:19:48;12.23;;;6.57;;
3939;SDS011;1984;48.312;9.244;2023-10-08T06:22:14;11.80;;;6.03;;
3939;SDS011;1984;48.312;9.244;2023-10-08T06:24:40;17.73;;;6.53;;
3939;SDS011;1984;48.312;9.244;2023-10-08T06:27:06;13.10;;;5.53;;
3939;SDS011;1984;48.312;9.244;2023-10-08T06:29:32;11.33;;;5.70;;
3939;SDS011;1984;48.312;9.244;2023-10-08T06:31:58;18.70;;;7.13;;
3939;SDS011;1984;48.312;9.244;2023-10-08T06:34:27;14.87;;;6.70;;
3939;SDS011;1984;48.312;9.244;2023-10-08T06:36:54;15.63;;;6.23;;
3939;SDS011;1984;48.312;9.244;2023-10-08T06:39:21;12.20;;;5.70;;
3939;SDS011;1984;48.312;9.244;2023-10-08T06:42:06;19.77;;;6.17;;
3939;SDS011;1984;48.312;9.244;2023-10-08T06:44:32;15.53;;;6.33;;
3939;SDS011;1984;48.312;9.244;2023-10-08T06:46:57;16.03;;;7.50;;
3939;SDS011;1984;48.312;9.244;2023-10-08T06:49:23;15.53;;;6.53;;
3939;SDS011;1984;48.312;9.244;2023-10-08T06:51:49;11.27;;;6.23;;
3939;SDS011;1984;48.312;9.244;2023-10-08T06:54:17;11.53;;;5.60;;
3939;SDS011;1984;48.312;9.244;2023-10-08T06:56:46;12.37;;;6.40;;
3939;SDS011;1984;48.312;9.244;2023-10-08T06:59:16;10.57;;;6.10;;
3939;SDS011;1984;48.312;9.244;2023-10-08T07:01:42;13.07;;;6.60;;
3939;SDS011;1984;48.312;9.244;2023-10-08T07:04:11;11.90;;;6.07;;
3939;SDS011;1984;48.312;9.244;2023-10-08T07:06:40;20.53;;;6.50;;
3939;SDS011;1984;48.312;9.244;2023-10-08T07:09:09;14.17;;;6.90;;
3939;SDS011;1984;48.312;9.244;2023-10-08T07:11:48;14.60;;;6.57;;
3939;SDS011;1984;48.312;9.244;2023-10-08T07:14:16;14.63;;;6.87;;
3939;SDS011;1984;48.312;9.244;2023-10-08T07:16:43;11.30;;;5.90;;
3939;SDS011;1984;48.312;9.244;2023-10-08T07:19:08;20.80;;;6.37;;
3939;SDS011;1984;48.312;9.244;2023-10-08T07:21:42;17.10;;;6.13;;
3939;SDS011;1984;48.312;9.244;2023-10-08T07:24:14;12.77;;;6.40;;
3939;SDS011;1984;48.312;9.244;2023-10-08T07:26:42;14.07;;;7.20;;
3939;SDS011;1984;48.312;9.244;2023-10-08T07:29:14;16.63;;;7.47;;
3939;SDS011;1984;48.312;9.244;2023-10-08T07:31:45;18.20;;;8.20;;
3939;SDS011;1984;48.312;9.244;2023-10-08T07:34:16;17.60;;;9.30;;
3939;SDS011;1984;48.312;9.244;2023-10-08T07:36:51;16.53;;;7.87;;
3939;SDS011;1984;48.312;9.244;2023-10-08T07:39:18;16.83;;;8.93;;
3939;SDS011;1984;48.312;9.244;2023-10-08T07:42:07;19.90;;;9.83;;
3939;SDS011;1984;48.312;9.244;2023-10-08T07:44:33;21.40;;;9.30;;
3939;SDS011;1984;48.312;9.244;2023-10-08T07:47:04;15.40;;;10.10;;
3939;SDS011;1984;48.312;9.244;2023-10-08T07:49:35;23.97;;;10.33;;
3939;SDS011;1984;48.312;9.244;2023-10-08T07:52:01;18.30;;;9.23;;
3939;SDS011;1984;48.312;9.244;2023-10-08T07:54:29;22.73;;;11.10;;
3939;SDS011;1984;48.312;9.244;2023-10-08T07:56:59;17.70;;;11.07;;
3939;SDS011;1984;48.312;9.244;2023-10-08T07:59:37;22.63;;;11.80;;
3939;SDS011;1984;48.312;9.244;2023-10-08T08:02:07;27.37;;;13.20;;
3939;SDS011;1984;48.312;9.244;2023-10-08T08:04:39;34.57;;;17.57;;
3939;SDS011;1984;48.312;9.244;2023-10-08T08:07:06;34.83;;;16.27;;
3939;SDS011;1984;48.312;9.244;2023-10-08T08:09:32;21.30;;;13.00;;
3939;SDS011;1984;48.312;9.244;2023-10-08T08:12:03;32.67;;;13.83;;
3939;SDS011;1984;48.312;9.244;2023-10-08T08:14:32;25.87;;;15.30;;
3939;SDS011;1984;48.312;9.244;2023-10-08T08:16:58;29.70;;;13.97;;
3939;SDS011;1984;48.312;9.244;2023-10-08T08:19:38;26.60;;;13.50;;
3939;SDS011;1984;48.312;9.244;2023-10-08T08:22:14;23.10;;;12.80;;
3939;SDS011;1984;48.312;9.244;2023-10-08T08:24:46;29.60;;;12.00;;
3939;SDS011;1984;48.312;9.244;2023-10-08T08:27:29;31.10;;;14.37;;
3939;SDS011;1984;48.312;9.244;2023-10-08T08:29:58;25.23;;;10.93;;
3939;SDS011;1984;48.312;9.244;2023-10-08T08:32:35;21.30;;;11.33;;
3939;SDS011;1984;48.312;9.244;2023-10-08T08:35:04;30.03;;;11.67;;
3939;SDS011;1984;48.312;9.244;2023-10-08T08:37:32;17.57;;;9.43;;
3939;SDS011;1984;48.312;9.244;2023-10-08T08:40:00;20.47;;;9.70;;
3939;SDS011;1984;48.312;9.244;2023-10-08T08:42:34;19.80;;;8.87;;
3939;SDS011;1984;48.312;9.244;2023-10-08T08:45:01;17.63;;;7.60;;
3939;SDS011;1984;48.312;9.244;2023-10-08T08:47:33;25.53;;;9.10;;
3939;SDS011;1984;48.312;9.244;2023-10-08T08:50:00;17.40;;;8.53;;
3939;SDS011;1984;48.312;9.244;2023-10-08T08:52:33;14.73;;;9.73;;
3939;SDS011;1984;48.312;9.244;2023-10-08T08:55:01;27.17;;;11.00;;
3939;SDS011;1984;48.312;9.244;2023-10-08T08:57:43;17.17;;;9.87;;
3939;SDS011;1984;48.312;9.244;2023-10-08T09:00:12;16.93;;;10.47;;
3939;SDS011;1984;48.312;9.244;2023-10-08T09:02:39;21.70;;;11.90;;
3939;SDS011;1984;48.312;9.244;2023-10-08T09:05:06;23.73;;;10.20;;
3939;SDS011;1984;48.312;9.244;2023-10-08T09:07:51;21.70;;;10.73;;
3939;SDS011;1984;48.312;9.244;2023-10-08T09:10:24;17.97;;;8.33;;
3939;SDS011;1984;48.312;9.244;2023-10-08T09:12:53;8.80;;;4.70;;
3939;SDS011;1984;48.312;9.244;2023-10-08T09:15:22;16.83;;;4.47;;
3939;SDS011;1984;48.312;9.244;2023-10-08T09:17:48;13.70;;;3.57;;
3939;SDS011;1984;48.312;9.244;2023-10-08T09:20:14;19.80;;;3.27;;
3939;SDS011;1984;48.312;9.244;2023-10-08T09:22:40;12.40;;;2.77;;
3939;SDS011;1984;48.312;9.244;2023-10-08T09:25:06;11.33;;;3.20;;
3939;SDS011;1984;48.312;9.244;2023-10-08T09:27:32;9.60;;;2.90;;
3939;SDS011;1984;48.312;9.244;2023-10-08T09:29:58;16.50;;;3.30;;
3939;SDS011;1984;48.312;9.244;2023-10-08T09:32:24;7.60;;;3.67;;
3939;SDS011;1984;48.312;9.244;2023-10-08T09:34:50;10.53;;;3.73;;
3939;SDS011;1984;48.312;9.244;2023-10-08T09:37:19;13.17;;;3.43;;
3939;SDS011;1984;48.312;9.244;2023-10-08T09:39:47;30.20;;;3.80;;
3939;SDS011;1984;48.312;9.244;2023-10-08T09:42:16;12.37;;;3.90;;
3939;SDS011;1984;48.312;9.244;2023-10-08T09:44:44;13.93;;;3.30;;
3939;SDS011;1984;48.312;9.244;2023-10-08T09:47:09;9.20;;;2.57;;
3939;SDS011;1984;48.312;9.244;2023-10-08T09:49:40;13.17;;;3.30;;
3939;SDS011;1984;48.312;9.244;2023-10-08T09:52:08;11.90;;;2.93;;
3939;SDS011;1984;48.312;9.244;2023-10-08T09:54:44;15.47;;;2.77;;
3939;SDS011;1984;48.312;9.244;2023-10-08T09:57:20;13.27;;;3.70;;
3939;SDS011;1984;48.312;9.244;2023-10-08T09:59:49;14.40;;;3.50;;
3939;SDS011;1984;48.312;9.244;2023-10-08T10:02:16;18.03;;;3.97;;
3939;SDS011;1984;48.312;9.244;2023-10-08T10:04:43;11.35;;;3.45;;
3939;SDS011;1984;48.312;9.244;2023-10-08T10:07:10;16.45;;;4.30;;
3939;SDS011;1984;48.312;9.244;2023-10-08T10:09:37;20.50;;;3.50;;
3939;SDS011;1984;48.312;9.244;2023-10-08T10:12:03;23.77;;;4.80;;
3939;SDS011;1984;48.312;9.244;2023-10-08T10:14:40;16.42;;;3.28;;
3939;SDS011;1984;48.312;9.244;2023-10-08T10:19:37;17.80;;;3.77;;
3939;SDS011;1984;48.312;9.244;2023-10-08T10:22:03;11.00;;;3.43;;
3939;SDS011;1984;48.312;9.244;2023-10-08T10:24:35;7.90;;;2.90;;
3939;SDS011;1984;48.312;9.244;2023-10-08T10:27:13;16.33;;;3.83;;
3939;SDS011;1984;48.312;9.244;2023-10-08T10:29:40;18.07;;;3.30;;
3939;SDS011;1984;48.312;9.244;2023-10-08T10:32:12;14.83;;;2.70;;
3939;SDS011;1984;48.312;9.244;2023-10-08T10:34:40;12.17;;;3.50;;
3939;SDS011;1984;48.312;9.244;2023-10-08T10:37:10;9.40;;;3.43;;
3939;SDS011;1984;48.312;9.244;2023-10-08T10:42:21;24.83;;;3.87;;
3939;SDS011;1984;48.312;9.244;2023-10-08T10:44:48;13.93;;;3.30;;
3939;SDS011;1984;48.312;9.244;2023-10-08T10:47:15;17.70;;;3.93;;
3939;SDS011;1984;48.312;9.244;2023-10-08T10:49:45;13.60;;;2.90;;
3939;SDS011;1984;48.312;9.244;2023-10-08T10:52:20;7.70;;;2.53;;
3939;SDS011;1984;48.312;9.244;2023-10-08T10:54:57;18.53;;;4.20;;
3939;SDS011;1984;48.312;9.244;2023-10-08T10:57:44;12.40;;;3.30;;
3939;SDS011;1984;48.312;9.244;2023-10-08T11:00:22;21.50;;;3.67;;
3939;SDS011;1984;48.312;9.244;2023-10-08T11:02:58;15.60;;;3.53;;
3939;SDS011;1984;48.312;9.244;2023-10-08T11:05:27;16.00;;;3.10;;
3939;SDS011;1984;48.312;9.244;2023-10-08T11:07:57;10.73;;;3.20;;
3939;SDS011;1984;48.312;9.244;2023-10-08T11:10:30;25.50;;;4.23;;
3939;SDS011;1984;48.312;9.244;2023-10-08T11:13:04;19.47;;;3.70;;
3939;SDS011;1984;48.312;9.244;2023-10-08T11:15:39;20.20;;;4.00;;
3939;SDS011;1984;48.312;9.244;2023-10-08T11:18:14;20.23;;;3.30;;
3939;SDS011;1984;48.312;9.244;2023-10-08T11:20:40;23.00;;;4.10;;
3939;SDS011;1984;48.312;9.244;2023-10-08T11:23:09;19.83;;;3.77;;
3939;SDS011;1984;48.312;9.244;2023-10-08T11:25:58;10.63;;;3.37;;
3939;SDS011;1984;48.312;9.244;2023-10-08T11:28:37;33.93;;;5.40;;
3939;SDS011;1984;48.312;9.244;2023-10-08T11:31:08;31.43;;;10.60;;
3939;SDS011;1984;48.312;9.244;2023-10-08T11:33:36;26.07;;;11.13;;
3939;SDS011;1984;48.312;9.244;2023-10-08T11:36:04;12.00;;;4.60;;
3939;SDS011;1984;48.312;9.244;2023-10-08T11:38:41;15.83;;;4.03;;
3939;SDS011;1984;48.312;9.244;2023-10-08T11:41:10;12.07;;;3.40;;
3939;SDS011;1984;48.312;9.244;2023-10-08T11:43:49;9.50;;;3.53;;
3939;SDS011;1984;48.312;9.244;2023-10-08T11:48:53;16.40;;;7.30;;
3939;SDS011;1984;48.312;9.244;2023-10-08T11:51:23;21.30;;;6.20;;
3939;SDS011;1984;48.312;9.244;2023-10-08T11:53:50;16.50;;;7.60;;
3939;SDS011;1984;48.312;9.244;2023-10-08T11:56:16;9.47;;;3.70;;
3939;SDS011;1984;48.312;9.244;2023-10-08T11:58:46;23.63;;;3.70;;
3939;SDS011;1984;48.312;9.244;2023-10-08T12:01:11;20.83;;;4.80;;
3939;SDS011;1984;48.312;9.244;2023-10-08T12:03:41;8.77;;;2.60;;
3939;SDS011;1984;48.312;9.244;2023-10-08T12:06:08;15.00;;;3.50;;
3939;SDS011;1984;48.312;9.244;2023-10-08T12:08:40;11.67;;;3.80;;
3939;SDS011;1984;48.312;9.244;2023-10-08T12:11:11;13.43;;;3.80;;
3939;SDS011;1984;48.312;9.244;2023-10-08T12:13:38;11.53;;;3.37;;
3939;SDS011;1984;48.312;9.244;2023-10-08T12:16:09;14.77;;;2.90;;
3939;SDS011;1984;48.312;9.244;2023-10-08T12:18:49;11.63;;;3.70;;
3939;SDS011;1984;48.312;9.244;2023-10-08T12:21:19;12.33;;;4.17;;
3939;SDS011;1984;48.312;9.244;2023-10-08T12:23:45;10.30;;;3.37;;
3939;SDS011;1984;48.312;9.244;2023-10-08T12:26:11;50.30;;;20.30;;
3939;SDS011;1984;48.312;9.244;2023-10-08T12:28:40;27.60;;;14.87;;
3939;SDS011;1984;48.312;9.244;2023-10-08T12:31:09;19.30;;;5.87;;
3939;SDS011;1984;48.312;9.244;2023-10-08T12:33:36;18.13;;;7.17;;
3939;SDS011;1984;48.312;9.244;2023-10-08T12:36:02;27.30;;;16.43;;
3939;SDS011;1984;48.312;9.244;2023-10-08T12:38:35;30.73;;;9.80;;
3939;SDS011;1984;48.312;9.244;2023-10-08T12:41:01;38.67;;;21.47;;
3939;SDS011;1984;48.312;9.244;2023-10-08T12:43:36;25.13;;;12.57;;
3939;SDS011;1984;48.312;9.244;2023-10-08T12:46:07;26.80;;;7.80;;
3939;SDS011;1984;48.312;9.244;2023-10-08T12:48:38;38.83;;;20.13;;
3939;SDS011;1984;48.312;9.244;2023-10-08T12:51:04;27.40;;;13.17;;
3939;SDS011;1984;48.312;9.244;2023-10-08T12:53:31;74.20;;;39.10;;
3939;SDS011;1984;48.312;9.244;2023-10-08T12:56:08;21.43;;;8.27;;
3939;SDS011;1984;48.312;9.244;2023-10-08T12:58:40;16.60;;;4.90;;
3939;SDS011;1984;48.312;9.244;2023-10-08T13:01:09;16.87;;;4.90;;
3939;SDS011;1984;48.312;9.244;2023-10-08T13:03:38;16.40;;;7.17;;
3939;SDS011;1984;48.312;9.244;2023-10-08T13:06:08;16.60;;;6.60;;
3939;SDS011;1984;48.312;9.244;2023-10-08T13:08:39;22.83;;;9.03;;
3939;SDS011;1984;48.312;9.244;2023-10-08T13:11:05;174.90;;;67.93;;
3939;SDS011;1984;48.312;9.244;2023-10-08T13:13:31;130.57;;;48.23;;
3939;SDS011;1984;48.312;9.244;2023-10-08T13:15:58;86.97;;;31.70;;
3939;SDS011;1984;48.312;9.244;2023-10-08T13:18:25;29.03;;;8.83;;
3939;SDS011;1984;48.312;9.244;2023-10-08T13:20:51;13.77;;;5.07;;
3939;SDS011;1984;48.312;9.244;2023-10-08T13:23:18;13.90;;;4.60;;
3939;SDS011;1984;48.312;9.244;2023-10-08T13:25:45;9.90;;;3.60;;
3939;SDS011;1984;48.312;9.244;2023-10-08T13:28:16;19.37;;;3.70;;
3939;SDS011;1984;48.312;9.244;2023-10-08T13:30:42;6.73;;;2.77;;
3939;SDS011;1984;48.312;9.244;2023-10-08T13:33:08;21.83;;;4.30;;
3939;SDS011;1984;48.312;9.244;2023-10-08T13:35:34;16.87;;;3.70;;
3939;SDS011;1984;48.312;9.244;2023-10-08T13:38:00;17.67;;;4.03;;
3939;SDS011;1984;48.312;9.244;2023-10-08T13:40:31;30.07;;;3.57;;
3939;SDS011;1984;48.312;9.244;2023-10-08T13:42:58;19.13;;;4.90;;
3939;SDS011;1984;48.312;9.244;2023-10-08T13:45:23;17.43;;;4.23;;
3939;SDS011;1984;48.312;9.244;2023-10-08T13:47:54;11.00;;;3.93;;
3939;SDS011;1984;48.312;9.244;2023-10-08T13:50:21;21.60;;;4.90;;
3939;SDS011;1984;48.312;9.244;2023-10-08T13:52:47;19.83;;;3.83;;
3939;SDS011;1984;48.312;9.244;2023-10-08T13:55:12;18.43;;;3.80;;
3939;SDS011;1984;48.312;9.244;2023-10-08T13:57:39;17.03;;;3.53;;
3939;SDS011;1984;48.312;9.244;2023-10-08T14:00:07;17.97;;;3.90;;
3939;SDS011;1984;48.312;9.244;2023-10-08T14:02:40;18.57;;;3.40;;
3939;SDS011;1984;48.312;9.244;2023-10-08T14:05:07;25.17;;;3.60;;
3939;SDS011;1984;48.312;9.244;2023-10-08T14:07:34;23.47;;;3.07;;
3939;SDS011;1984;48.312;9.244;2023-10-08T14:10:00;19.03;;;3.40;;
3939;SDS011;1984;48.312;9.244;2023-10-08T14:12:30;13.70;;;3.90;;
3939;SDS011;1984;48.312;9.244;2023-10-08T14:14:59;22.70;;;3.47;;
3939;SDS011;1984;48.312;9.244;2023-10-08T14:17:31;19.27;;;3.53;;
3939;SDS011;1984;48.312;9.244;2023-10-08T14:20:13;20.10;;;4.00;;
3939;SDS011;1984;48.312;9.244;2023-10-08T14:22:46;15.00;;;3.77;;
3939;SDS011;1984;48.312;9.244;2023-10-08T14:25:22;15.10;;;3.40;;
3939;SDS011;1984;48.312;9.244;2023-10-08T14:27:51;10.93;;;3.40;;
3939;SDS011;1984;48.312;9.244;2023-10-08T14:30:29;20.57;;;3.67;;
3939;SDS011;1984;48.312;9.244;2023-10-08T14:32:56;9.20;;;3.03;;
3939;SDS011;1984;48.312;9.244;2023-10-08T14:35:23;20.03;;;2.90;;
3939;SDS011;1984;48.312;9.244;2023-10-08T14:38:07;19.43;;;3.80;;
3939;SDS011;1984;48.312;9.244;2023-10-08T14:40:51;21.00;;;3.90;;
3939;SDS011;1984;48.312;9.244;2023-10-08T14:43:35;18.57;;;3.80;;
3939;SDS011;1984;48.312;9.244;2023-10-08T14:46:02;12.00;;;3.27;;
3939;SDS011;1984;48.312;9.244;2023-10-08T14:48:31;31.43;;;4.40;;
3939;SDS011;1984;48.312;9.244;2023-10-08T14:51:00;16.80;;;3.17;;
3939;SDS011;1984;48.312;9.244;2023-10-08T14:53:31;24.63;;;4.30;;
3939;SDS011;1984;48.312;9.244;2023-10-08T14:55:58;16.00;;;3.20;;
3939;SDS011;1984;48.312;9.244;2023-10-08T14:58:26;9.77;;;3.00;;
3939;SDS011;1984;48.312;9.244;2023-10-08T15:00:51;20.43;;;4.07;;
3939;SDS011;1984;48.312;9.244;2023-10-08T15:03:19;11.00;;;3.10;;
3939;SDS011;1984;48.312;9.244;2023-10-08T15:05:45;11.20;;;2.90;;
3939;SDS011;1984;48.312;9.244;2023-10-08T15:08:12;20.57;;;3.93;;
3939;SDS011;1984;48.312;9.244;2023-10-08T15:10:39;13.20;;;2.90;;
3939;SDS011;1984;48.312;9.244;2023-10-08T15:13:05;13.93;;;3.57;;
3939;SDS011;1984;48.312;9.244;2023-10-08T15:15:31;20.67;;;3.10;;
3939;SDS011;1984;48.312;9.244;2023-10-08T15:17:59;16.57;;;2.90;;
3939;SDS011;1984;48.312;9.244;2023-10-08T15:20:28;21.50;;;3.17;;
3939;SDS011;1984;48.312;9.244;2023-10-08T15:22:57;22.37;;;3.60;;
3939;SDS011;1984;48.312;9.244;2023-10-08T15:25:23;16.23;;;2.80;;
3939;SDS011;1984;48.312;9.244;2023-10-08T15:27:48;14.43;;;3.13;;
3939;SDS011;1984;48.312;9.244;2023-10-08T15:30:15;14.63;;;3.90;;
3939;SDS011;1984;48.312;9.244;2023-10-08T15:32:44;25.17;;;3.93;;